sensor_id;sensor_type;location;lat;lon;timestamp;temperature;humidity
42135;DHT22;28312;43.460;11.810;2023-08-20T00:03:43;22.70;54.80
42135;DHT22;28312;43.460;11.810;2023-08-20T00:07:49;22.70;54.90
42135;DHT22;28312;43.460;11.810;2023-08-20T00:11:53;22.60;54.50
42135;DHT22;28312;43.460;11.810;2023-08-20T00:15:56;22.60;54.80
42135;DHT22;28312;43.460;11.810;2023-08-20T00:20:01;22.50;54.90
42135;DHT22;28312;43.460;11.810;2023-08-20T00:24:08;22.40;55.10
42135;DHT22;28312;43.460;11.810;2023-08-20T00:28:11;22.30;55.30
42135;DHT22;28312;43.460;11.810;2023-08-20T00:32:15;22.20;55.40
42135;DHT22;28312;43.460;11.810;2023-08-20T00:36:19;22.10;55.50
42135;DHT22;28312;43.460;11.810;2023-08-20T00:40:24;22.00;55.50
42135;DHT22;28312;43.460;11.810;2023-08-20T00:44:28;21.90;55.60
42135;DHT22;28312;43.460;11.810;2023-08-20T00:48:32;21.70;55.70
42135;DHT22;28312;43.460;11.810;2023-08-20T00:52:35;21.70;55.80
42135;DHT22;28312;43.460;11.810;2023-08-20T00:56:39;21.60;55.90
42135;DHT22;28312;43.460;11.810;2023-08-20T01:00:42;21.60;55.90
42135;DHT22;28312;43.460;11.810;2023-08-20T01:04:47;21.40;56.20
42135;DHT22;28312;43.460;11.810;2023-08-20T01:09:03;21.30;56.40
42135;DHT22;28312;43.460;11.810;2023-08-20T01:13:10;21.20;56.50
42135;DHT22;28312;43.460;11.810;2023-08-20T01:17:13;21.20;56.50
42135;DHT22;28312;43.460;11.810;2023-08-20T01:30:33;21.10;56.70
42135;DHT22;28312;43.460;11.810;2023-08-20T01:34:38;21.00;56.80
42135;DHT22;28312;43.460;11.810;2023-08-20T01:38:41;20.90;56.90
42135;DHT22;28312;43.460;11.810;2023-08-20T01:42:44;20.80;57.00
42135;DHT22;28312;43.460;11.810;2023-08-20T01:46:49;20.80;57.20
42135;DHT22;28312;43.460;11.810;2023-08-20T01:50:52;20.70;57.20
42135;DHT22;28312;43.460;11.810;2023-08-20T01:54:58;20.70;57.20
42135;DHT22;28312;43.460;11.810;2023-08-20T01:59:03;20.60;57.30
42135;DHT22;28312;43.460;11.810;2023-08-20T02:03:06;20.60;57.50
42135;DHT22;28312;43.460;11.810;2023-08-20T02:07:10;20.40;57.70
42135;DHT22;28312;43.460;11.810;2023-08-20T02:11:13;20.50;57.80
42135;DHT22;28312;43.460;11.810;2023-08-20T02:15:20;20.50;57.90
42135;DHT22;28312;43.460;11.810;2023-08-20T02:19:23;20.50;57.80
42135;DHT22;28312;43.460;11.810;2023-08-20T02:23:27;20.50;57.90
42135;DHT22;28312;43.460;11.810;2023-08-20T02:27:31;20.40;57.90
42135;DHT22;28312;43.460;11.810;2023-08-20T02:31:35;20.40;57.90
42135;DHT22;28312;43.460;11.810;2023-08-20T02:35:40;20.30;57.90
42135;DHT22;28312;43.460;11.810;2023-08-20T02:39:45;20.20;58.00
42135;DHT22;28312;43.460;11.810;2023-08-20T02:43:49;20.20;58.10
42135;DHT22;28312;43.460;11.810;2023-08-20T02:47:52;20.20;58.20
42135;DHT22;28312;43.460;11.810;2023-08-20T02:51:56;20.10;58.20
42135;DHT22;28312;43.460;11.810;2023-08-20T02:55:59;20.10;58.30
42135;DHT22;28312;43.460;11.810;2023-08-20T03:00:03;20.00;58.30
42135;DHT22;28312;43.460;11.810;2023-08-20T03:04:07;20.00;58.40
42135;DHT22;28312;43.460;11.810;2023-08-20T03:08:12;19.90;58.40
42135;DHT22;28312;43.460;11.810;2023-08-20T03:12:15;19.90;58.40
42135;DHT22;28312;43.460;11.810;2023-08-20T03:16:19;19.80;58.50
42135;DHT22;28312;43.460;11.810;2023-08-20T03:20:23;19.70;58.60
42135;DHT22;28312;43.460;11.810;2023-08-20T03:24:26;19.70;58.50
42135;DHT22;28312;43.460;11.810;2023-08-20T03:28:29;19.60;58.70
42135;DHT22;28312;43.460;11.810;2023-08-20T03:32:33;19.60;58.80
42135;DHT22;28312;43.460;11.810;2023-08-20T03:36:38;19.60;58.80
42135;DHT22;28312;43.460;11.810;2023-08-20T03:40:42;19.50;58.80
42135;DHT22;28312;43.460;11.810;2023-08-20T03:44:45;19.50;58.80
42135;DHT22;28312;43.460;11.810;2023-08-20T03:48:49;19.40;58.90
42135;DHT22;28312;43.460;11.810;2023-08-20T03:52:52;19.30;59.10
42135;DHT22;28312;43.460;11.810;2023-08-20T03:56:56;19.30;59.10
42135;DHT22;28312;43.460;11.810;2023-08-20T04:00:59;19.20;59.20
42135;DHT22;28312;43.460;11.810;2023-08-20T04:05:03;19.20;59.20
42135;DHT22;28312;43.460;11.810;2023-08-20T04:09:07;19.20;59.30
42135;DHT22;28312;43.460;11.810;2023-08-20T04:13:14;19.10;59.40
42135;DHT22;28312;43.460;11.810;2023-08-20T04:17:19;19.10;59.50
42135;DHT22;28312;43.460;11.810;2023-08-20T04:21:23;19.00;59.40
42135;DHT22;28312;43.460;11.810;2023-08-20T04:25:26;19.00;59.40
42135;DHT22;28312;43.460;11.810;2023-08-20T04:29:30;18.90;59.60
42135;DHT22;28312;43.460;11.810;2023-08-20T04:33:34;18.80;59.70
42135;DHT22;28312;43.460;11.810;2023-08-20T04:37:38;18.70;59.80
42135;DHT22;28312;43.460;11.810;2023-08-20T04:41:42;18.70;59.90
42135;DHT22;28312;43.460;11.810;2023-08-20T04:45:50;18.60;60.10
42135;DHT22;28312;43.460;11.810;2023-08-20T04:49:57;18.60;60.20
42135;DHT22;28312;43.460;11.810;2023-08-20T04:54:00;18.60;60.30
42135;DHT22;28312;43.460;11.810;2023-08-20T04:58:04;18.60;60.40
42135;DHT22;28312;43.460;11.810;2023-08-20T05:02:13;18.70;60.40
42135;DHT22;28312;43.460;11.810;2023-08-20T05:06:22;18.70;60.40
42135;DHT22;28312;43.460;11.810;2023-08-20T05:10:26;18.70;60.50
42135;DHT22;28312;43.460;11.810;2023-08-20T05:14:30;18.80;60.60
42135;DHT22;28312;43.460;11.810;2023-08-20T05:18:34;18.90;60.70
42135;DHT22;28312;43.460;11.810;2023-08-20T05:22:38;19.00;60.70
42135;DHT22;28312;43.460;11.810;2023-08-20T05:26:42;19.10;60.80
42135;DHT22;28312;43.460;11.810;2023-08-20T05:30:54;19.40;61.00
42135;DHT22;28312;43.460;11.810;2023-08-20T05:34:59;19.50;61.10
42135;DHT22;28312;43.460;11.810;2023-08-20T05:39:03;19.70;61.30
42135;DHT22;28312;43.460;11.810;2023-08-20T05:43:08;20.10;61.40
42135;DHT22;28312;43.460;11.810;2023-08-20T05:47:12;20.40;61.30
42135;DHT22;28312;43.460;11.810;2023-08-20T05:51:16;20.70;61.20
42135;DHT22;28312;43.460;11.810;2023-08-20T05:55:20;21.00;61.10
42135;DHT22;28312;43.460;11.810;2023-08-20T05:59:25;21.40;60.90
42135;DHT22;28312;43.460;11.810;2023-08-20T06:03:28;21.80;61.10
42135;DHT22;28312;43.460;11.810;2023-08-20T06:07:34;22.40;61.00
42135;DHT22;28312;43.460;11.810;2023-08-20T06:11:37;23.10;60.40
42135;DHT22;28312;43.460;11.810;2023-08-20T06:15:41;23.70;60.00
42135;DHT22;28312;43.460;11.810;2023-08-20T06:19:44;24.20;59.70
42135;DHT22;28312;43.460;11.810;2023-08-20T06:23:48;24.70;59.40
42135;DHT22;28312;43.460;11.810;2023-08-20T06:27:52;25.10;59.10
42135;DHT22;28312;43.460;11.810;2023-08-20T06:31:55;25.50;59.00
42135;DHT22;28312;43.460;11.810;2023-08-20T06:35:58;25.80;58.60
42135;DHT22;28312;43.460;11.810;2023-08-20T06:40:02;26.10;58.30
42135;DHT22;28312;43.460;11.810;2023-08-20T06:44:06;26.30;58.10
42135;DHT22;28312;43.460;11.810;2023-08-20T06:48:10;26.60;57.80
42135;DHT22;28312;43.460;11.810;2023-08-20T06:52:13;27.00;57.50
42135;DHT22;28312;43.460;11.810;2023-08-20T06:56:17;27.20;57.20
42135;DHT22;28312;43.460;11.810;2023-08-20T07:00:20;27.60;56.80
42135;DHT22;28312;43.460;11.810;2023-08-20T07:04:24;28.00;56.50
42135;DHT22;28312;43.460;11.810;2023-08-20T07:08:28;28.30;56.20
42135;DHT22;28312;43.460;11.810;2023-08-20T07:12:31;28.60;55.90
42135;DHT22;28312;43.460;11.810;2023-08-20T07:16:35;28.90;55.70
42135;DHT22;28312;43.460;11.810;2023-08-20T07:20:42;29.10;55.60
42135;DHT22;28312;43.460;11.810;2023-08-20T07:24:46;29.40;55.40
42135;DHT22;28312;43.460;11.810;2023-08-20T07:28:49;29.70;55.20
42135;DHT22;28312;43.460;11.810;2023-08-20T07:33:03;29.80;55.00
42135;DHT22;28312;43.460;11.810;2023-08-20T07:37:08;30.10;54.80
42135;DHT22;28312;43.460;11.810;2023-08-20T07:41:12;30.40;54.50
42135;DHT22;28312;43.460;11.810;2023-08-20T07:45:15;30.60;54.30
42135;DHT22;28312;43.460;11.810;2023-08-20T07:49:19;30.90;54.10
42135;DHT22;28312;43.460;11.810;2023-08-20T07:53:24;31.10;53.90
42135;DHT22;28312;43.460;11.810;2023-08-20T07:57:27;31.40;53.70
42135;DHT22;28312;43.460;11.810;2023-08-20T08:01:30;31.70;53.40
42135;DHT22;28312;43.460;11.810;2023-08-20T08:05:36;32.00;53.10
42135;DHT22;28312;43.460;11.810;2023-08-20T08:09:39;32.10;53.20
42135;DHT22;28312;43.460;11.810;2023-08-20T08:13:42;32.30;53.00
42135;DHT22;28312;43.460;11.810;2023-08-20T08:17:46;32.50;52.50
42135;DHT22;28312;43.460;11.810;2023-08-20T08:21:50;32.60;52.00
42135;DHT22;28312;43.460;11.810;2023-08-20T08:25:54;32.80;51.70
42135;DHT22;28312;43.460;11.810;2023-08-20T08:29:58;32.90;51.70
42135;DHT22;28312;43.460;11.810;2023-08-20T08:34:02;33.10;51.40
42135;DHT22;28312;43.460;11.810;2023-08-20T08:38:08;33.40;51.20
42135;DHT22;28312;43.460;11.810;2023-08-20T08:42:13;33.70;51.10
42135;DHT22;28312;43.460;11.810;2023-08-20T08:46:17;33.90;50.80
42135;DHT22;28312;43.460;11.810;2023-08-20T08:50:21;34.10;50.40
42135;DHT22;28312;43.460;11.810;2023-08-20T08:54:26;34.40;50.00
42135;DHT22;28312;43.460;11.810;2023-08-20T08:58:29;34.60;49.80
42135;DHT22;28312;43.460;11.810;2023-08-20T09:02:33;34.80;49.60
42135;DHT22;28312;43.460;11.810;2023-08-20T09:06:47;34.90;49.50
42135;DHT22;28312;43.460;11.810;2023-08-20T09:10:52;35.00;49.50
42135;DHT22;28312;43.460;11.810;2023-08-20T09:14:56;35.10;49.30
42135;DHT22;28312;43.460;11.810;2023-08-20T09:19:04;35.30;49.10
42135;DHT22;28312;43.460;11.810;2023-08-20T09:23:17;35.50;48.80
42135;DHT22;28312;43.460;11.810;2023-08-20T09:27:21;35.60;48.50
42135;DHT22;28312;43.460;11.810;2023-08-20T09:31:37;35.60;48.30
42135;DHT22;28312;43.460;11.810;2023-08-20T09:35:51;35.70;48.00
42135;DHT22;28312;43.460;11.810;2023-08-20T09:39:57;35.80;47.50
42135;DHT22;28312;43.460;11.810;2023-08-20T09:44:02;35.80;47.40
42135;DHT22;28312;43.460;11.810;2023-08-20T09:48:09;36.00;47.10
42135;DHT22;28312;43.460;11.810;2023-08-20T09:52:25;36.20;46.80
42135;DHT22;28312;43.460;11.810;2023-08-20T09:56:31;36.40;46.70
42135;DHT22;28312;43.460;11.810;2023-08-20T10:00:39;36.50;46.40
42135;DHT22;28312;43.460;11.810;2023-08-20T10:04:43;36.60;46.00
42135;DHT22;28312;43.460;11.810;2023-08-20T10:08:47;36.60;45.70
42135;DHT22;28312;43.460;11.810;2023-08-20T10:12:53;36.70;45.60
42135;DHT22;28312;43.460;11.810;2023-08-20T10:16:56;36.90;45.20
42135;DHT22;28312;43.460;11.810;2023-08-20T10:21:01;37.00;44.90
42135;DHT22;28312;43.460;11.810;2023-08-20T10:25:11;37.10;44.40
42135;DHT22;28312;43.460;11.810;2023-08-20T10:29:47;37.10;44.00
42135;DHT22;28312;43.460;11.810;2023-08-20T10:33:55;37.20;44.00
42135;DHT22;28312;43.460;11.810;2023-08-20T10:38:12;37.20;43.60
42135;DHT22;28312;43.460;11.810;2023-08-20T10:46:28;37.30;43.00
42135;DHT22;28312;43.460;11.810;2023-08-20T10:50:35;37.50;42.70
42135;DHT22;28312;43.460;11.810;2023-08-20T10:54:39;37.50;42.10
42135;DHT22;28312;43.460;11.810;2023-08-20T10:58:45;37.50;42.50
42135;DHT22;28312;43.460;11.810;2023-08-20T11:02:50;37.60;42.10
42135;DHT22;28312;43.460;11.810;2023-08-20T11:06:55;37.60;41.70
42135;DHT22;28312;43.460;11.810;2023-08-20T11:10:58;37.60;41.50
42135;DHT22;28312;43.460;11.810;2023-08-20T11:15:02;37.60;41.30
42135;DHT22;28312;43.460;11.810;2023-08-20T11:19:06;37.60;41.10
42135;DHT22;28312;43.460;11.810;2023-08-20T11:23:13;37.60;41.10
42135;DHT22;28312;43.460;11.810;2023-08-20T11:27:16;37.80;41.00
42135;DHT22;28312;43.460;11.810;2023-08-20T11:31:20;37.90;40.90
42135;DHT22;28312;43.460;11.810;2023-08-20T11:35:25;38.10;40.60
42135;DHT22;28312;43.460;11.810;2023-08-20T11:39:30;38.10;40.10
42135;DHT22;28312;43.460;11.810;2023-08-20T11:43:34;38.10;39.60
42135;DHT22;28312;43.460;11.810;2023-08-20T11:47:40;38.10;39.60
42135;DHT22;28312;43.460;11.810;2023-08-20T11:51:47;38.20;39.20
42135;DHT22;28312;43.460;11.810;2023-08-20T11:55:55;38.30;39.10
42135;DHT22;28312;43.460;11.810;2023-08-20T12:00:06;38.50;38.80
42135;DHT22;28312;43.460;11.810;2023-08-20T12:04:16;38.50;37.90
42135;DHT22;28312;43.460;11.810;2023-08-20T12:08:20;38.50;38.00
42135;DHT22;28312;43.460;11.810;2023-08-20T12:12:23;38.70;38.20
42135;DHT22;28312;43.460;11.810;2023-08-20T12:16:26;38.90;38.20
42135;DHT22;28312;43.460;11.810;2023-08-20T12:20:31;39.10;38.10
42135;DHT22;28312;43.460;11.810;2023-08-20T12:24:35;39.20;38.00
42135;DHT22;28312;43.460;11.810;2023-08-20T12:28:40;39.20;37.60
42135;DHT22;28312;43.460;11.810;2023-08-20T12:32:44;39.20;37.30
42135;DHT22;28312;43.460;11.810;2023-08-20T12:36:48;39.10;37.20
42135;DHT22;28312;43.460;11.810;2023-08-20T12:40:52;39.20;37.20
42135;DHT22;28312;43.460;11.810;2023-08-20T12:44:56;39.40;36.90
42135;DHT22;28312;43.460;11.810;2023-08-20T12:48:59;39.40;36.30
42135;DHT22;28312;43.460;11.810;2023-08-20T12:53:03;39.20;36.30
42135;DHT22;28312;43.460;11.810;2023-08-20T12:57:07;39.10;36.10
42135;DHT22;28312;43.460;11.810;2023-08-20T13:01:10;39.00;35.10
42135;DHT22;28312;43.460;11.810;2023-08-20T13:05:14;38.80;35.10
42135;DHT22;28312;43.460;11.810;2023-08-20T13:09:18;38.70;35.20
42135;DHT22;28312;43.460;11.810;2023-08-20T13:13:23;38.60;34.90
42135;DHT22;28312;43.460;11.810;2023-08-20T13:17:26;38.60;35.10
42135;DHT22;28312;43.460;11.810;2023-08-20T13:21:30;38.70;35.20
42135;DHT22;28312;43.460;11.810;2023-08-20T13:25:33;38.90;35.10
42135;DHT22;28312;43.460;11.810;2023-08-20T13:29:37;38.80;35.00
42135;DHT22;28312;43.460;11.810;2023-08-20T13:33:40;38.70;34.70
42135;DHT22;28312;43.460;11.810;2023-08-20T13:37:44;38.50;34.60
42135;DHT22;28312;43.460;11.810;2023-08-20T13:41:49;38.00;34.40
42135;DHT22;28312;43.460;11.810;2023-08-20T13:45:53;37.60;34.80
42135;DHT22;28312;43.460;11.810;2023-08-20T13:49:57;37.40;35.00
42135;DHT22;28312;43.460;11.810;2023-08-20T13:54:00;37.30;35.10
42135;DHT22;28312;43.460;11.810;2023-08-20T13:58:04;37.00;35.20
42135;DHT22;28312;43.460;11.810;2023-08-20T14:02:09;37.00;35.80
42135;DHT22;28312;43.460;11.810;2023-08-20T14:06:13;37.00;35.40
42135;DHT22;28312;43.460;11.810;2023-08-20T14:10:16;36.80;35.30
42135;DHT22;28312;43.460;11.810;2023-08-20T14:14:21;36.60;35.40
42135;DHT22;28312;43.460;11.810;2023-08-20T14:18:25;36.30;35.40
42135;DHT22;28312;43.460;11.810;2023-08-20T14:22:29;36.10;35.70
42135;DHT22;28312;43.460;11.810;2023-08-20T14:26:32;36.10;36.00
42135;DHT22;28312;43.460;11.810;2023-08-20T14:30:37;36.20;36.30
42135;DHT22;28312;43.460;11.810;2023-08-20T14:34:41;36.50;36.50
42135;DHT22;28312;43.460;11.810;2023-08-20T14:38:44;36.60;36.00
42135;DHT22;28312;43.460;11.810;2023-08-20T14:42:48;36.60;36.30
42135;DHT22;28312;43.460;11.810;2023-08-20T14:46:52;36.70;36.30
42135;DHT22;28312;43.460;11.810;2023-08-20T14:50:55;36.70;36.30
42135;DHT22;28312;43.460;11.810;2023-08-20T14:54:59;36.80;36.50
42135;DHT22;28312;43.460;11.810;2023-08-20T14:59:03;37.00;36.50
42135;DHT22;28312;43.460;11.810;2023-08-20T15:03:09;37.10;36.20
42135;DHT22;28312;43.460;11.810;2023-08-20T15:07:13;37.10;36.10
42135;DHT22;28312;43.460;11.810;2023-08-20T15:11:17;37.10;36.00
42135;DHT22;28312;43.460;11.810;2023-08-20T15:15:20;37.10;35.90
42135;DHT22;28312;43.460;11.810;2023-08-20T15:19:24;37.10;35.90
42135;DHT22;28312;43.460;11.810;2023-08-20T15:23:28;37.30;35.60
42135;DHT22;28312;43.460;11.810;2023-08-20T15:27:32;37.40;35.60
42135;DHT22;28312;43.460;11.810;2023-08-20T15:31:36;37.40;35.40
42135;DHT22;28312;43.460;11.810;2023-08-20T15:35:40;37.40;35.40
42135;DHT22;28312;43.460;11.810;2023-08-20T15:39:44;37.40;35.30
42135;DHT22;28312;43.460;11.810;2023-08-20T15:43:48;37.20;35.20
42135;DHT22;28312;43.460;11.810;2023-08-20T15:47:51;37.20;35.50
42135;DHT22;28312;43.460;11.810;2023-08-20T15:51:55;37.10;35.40
42135;DHT22;28312;43.460;11.810;2023-08-20T15:55:58;37.00;35.40
42135;DHT22;28312;43.460;11.810;2023-08-20T16:00:03;36.90;35.40
42135;DHT22;28312;43.460;11.810;2023-08-20T16:04:06;36.70;35.50
42135;DHT22;28312;43.460;11.810;2023-08-20T16:08:12;36.50;35.40
42135;DHT22;28312;43.460;11.810;2023-08-20T16:12:16;36.20;35.40
42135;DHT22;28312;43.460;11.810;2023-08-20T16:16:22;35.90;35.50
42135;DHT22;28312;43.460;11.810;2023-08-20T16:20:25;35.60;35.70
42135;DHT22;28312;43.460;11.810;2023-08-20T16:24:29;35.40;35.80
42135;DHT22;28312;43.460;11.810;2023-08-20T16:28:33;35.30;36.00
42135;DHT22;28312;43.460;11.810;2023-08-20T16:32:36;35.10;36.00
42135;DHT22;28312;43.460;11.810;2023-08-20T16:36:40;34.90;36.10
42135;DHT22;28312;43.460;11.810;2023-08-20T16:40:43;34.70;36.30
42135;DHT22;28312;43.460;11.810;2023-08-20T16:44:47;34.60;36.40
42135;DHT22;28312;43.460;11.810;2023-08-20T16:48:51;34.50;36.40
42135;DHT22;28312;43.460;11.810;2023-08-20T16:52:56;34.20;36.50
42135;DHT22;28312;43.460;11.810;2023-08-20T16:57:02;34.10;36.70
42135;DHT22;28312;43.460;11.810;2023-08-20T17:01:05;33.90;36.90
42135;DHT22;28312;43.460;11.810;2023-08-20T17:05:09;33.80;36.90
42135;DHT22;28312;43.460;11.810;2023-08-20T17:09:12;33.60;37.00
42135;DHT22;28312;43.460;11.810;2023-08-20T17:13:16;33.40;37.00
42135;DHT22;28312;43.460;11.810;2023-08-20T17:17:21;33.20;37.30
42135;DHT22;28312;43.460;11.810;2023-08-20T17:21:24;33.10;37.40
42135;DHT22;28312;43.460;11.810;2023-08-20T17:25:28;32.90;37.50
42135;DHT22;28312;43.460;11.810;2023-08-20T17:29:31;32.70;37.60
42135;DHT22;28312;43.460;11.810;2023-08-20T17:33:35;32.50;37.80
42135;DHT22;28312;43.460;11.810;2023-08-20T17:37:39;32.30;38.00
42135;DHT22;28312;43.460;11.810;2023-08-20T17:41:42;32.20;38.10
42135;DHT22;28312;43.460;11.810;2023-08-20T17:45:46;32.10;38.30
42135;DHT22;28312;43.460;11.810;2023-08-20T17:49:51;31.80;38.40
42135;DHT22;28312;43.460;11.810;2023-08-20T17:53:55;31.60;38.50
42135;DHT22;28312;43.460;11.810;2023-08-20T17:57:58;31.50;38.70
42135;DHT22;28312;43.460;11.810;2023-08-20T18:02:02;31.30;38.80
42135;DHT22;28312;43.460;11.810;2023-08-20T18:06:05;31.10;38.90
42135;DHT22;28312;43.460;11.810;2023-08-20T18:10:09;31.00;39.00
42135;DHT22;28312;43.460;11.810;2023-08-20T18:14:13;30.80;39.10
42135;DHT22;28312;43.460;11.810;2023-08-20T18:18:16;30.60;39.30
42135;DHT22;28312;43.460;11.810;2023-08-20T18:22:20;30.50;39.40
42135;DHT22;28312;43.460;11.810;2023-08-20T18:26:24;30.30;39.60
42135;DHT22;28312;43.460;11.810;2023-08-20T18:30:27;30.20;39.70
42135;DHT22;28312;43.460;11.810;2023-08-20T18:34:32;30.10;39.80
42135;DHT22;28312;43.460;11.810;2023-08-20T18:38:40;29.90;39.90
42135;DHT22;28312;43.460;11.810;2023-08-20T18:42:44;29.80;40.00
42135;DHT22;28312;43.460;11.810;2023-08-20T18:46:47;29.70;40.10
42135;DHT22;28312;43.460;11.810;2023-08-20T18:50:52;29.60;40.20
42135;DHT22;28312;43.460;11.810;2023-08-20T18:54:55;29.60;40.40
42135;DHT22;28312;43.460;11.810;2023-08-20T18:58:59;29.60;40.60
42135;DHT22;28312;43.460;11.810;2023-08-20T19:03:03;29.50;40.80
42135;DHT22;28312;43.460;11.810;2023-08-20T19:07:09;29.50;40.90
42135;DHT22;28312;43.460;11.810;2023-08-20T19:11:13;29.40;41.00
42135;DHT22;28312;43.460;11.810;2023-08-20T19:15:17;29.30;41.10
42135;DHT22;28312;43.460;11.810;2023-08-20T19:19:22;29.20;41.20
42135;DHT22;28312;43.460;11.810;2023-08-20T19:23:26;29.20;41.40
42135;DHT22;28312;43.460;11.810;2023-08-20T19:27:31;29.10;41.50
42135;DHT22;28312;43.460;11.810;2023-08-20T19:31:36;29.10;41.60
42135;DHT22;28312;43.460;11.810;2023-08-20T19:35:41;29.00;41.70
42135;DHT22;28312;43.460;11.810;2023-08-20T19:39:46;28.90;41.80
42135;DHT22;28312;43.460;11.810;2023-08-20T19:43:50;28.90;41.90
42135;DHT22;28312;43.460;11.810;2023-08-20T19:47:54;28.80;42.00
42135;DHT22;28312;43.460;11.810;2023-08-20T19:51:57;28.70;42.00
42135;DHT22;28312;43.460;11.810;2023-08-20T19:56:01;28.60;42.10
42135;DHT22;28312;43.460;11.810;2023-08-20T20:00:07;28.60;42.20
42135;DHT22;28312;43.460;11.810;2023-08-20T20:04:14;28.50;42.30
42135;DHT22;28312;43.460;11.810;2023-08-20T20:08:18;28.50;42.40
42135;DHT22;28312;43.460;11.810;2023-08-20T20:12:25;28.40;42.50
42135;DHT22;28312;43.460;11.810;2023-08-20T20:16:30;28.30;42.60
42135;DHT22;28312;43.460;11.810;2023-08-20T20:20:33;28.20;42.70
42135;DHT22;28312;43.460;11.810;2023-08-20T20:24:38;28.20;42.80
42135;DHT22;28312;43.460;11.810;2023-08-20T20:28:42;28.20;42.80
42135;DHT22;28312;43.460;11.810;2023-08-20T20:32:46;28.10;42.90
42135;DHT22;28312;43.460;11.810;2023-08-20T20:36:51;28.00;43.00
42135;DHT22;28312;43.460;11.810;2023-08-20T20:40:55;27.90;43.00
42135;DHT22;28312;43.460;11.810;2023-08-20T20:44:59;27.80;43.10
42135;DHT22;28312;43.460;11.810;2023-08-20T20:49:03;27.60;43.20
42135;DHT22;28312;43.460;11.810;2023-08-20T20:53:10;27.50;43.40
42135;DHT22;28312;43.460;11.810;2023-08-20T20:57:14;27.20;43.60
42135;DHT22;28312;43.460;11.810;2023-08-20T21:01:18;27.10;43.60
42135;DHT22;28312;43.460;11.810;2023-08-20T21:05:23;26.90;43.80
42135;DHT22;28312;43.460;11.810;2023-08-20T21:09:27;26.70;43.90
42135;DHT22;28312;43.460;11.810;2023-08-20T21:13:30;26.60;44.20
42135;DHT22;28312;43.460;11.810;2023-08-20T21:17:33;26.50;44.30
42135;DHT22;28312;43.460;11.810;2023-08-20T21:21:40;26.30;44.50
42135;DHT22;28312;43.460;11.810;2023-08-20T21:25:43;26.20;44.60
42135;DHT22;28312;43.460;11.810;2023-08-20T21:29:47;26.10;44.80
42135;DHT22;28312;43.460;11.810;2023-08-20T21:33:50;26.00;44.90
42135;DHT22;28312;43.460;11.810;2023-08-20T21:37:55;25.70;45.00
42135;DHT22;28312;43.460;11.810;2023-08-20T21:41:58;25.60;45.20
42135;DHT22;28312;43.460;11.810;2023-08-20T21:46:02;25.40;45.30
42135;DHT22;28312;43.460;11.810;2023-08-20T21:50:06;25.20;45.50
42135;DHT22;28312;43.460;11.810;2023-08-20T21:54:09;25.10;45.60
42135;DHT22;28312;43.460;11.810;2023-08-20T21:58:13;25.10;45.60
42135;DHT22;28312;43.460;11.810;2023-08-20T22:02:17;25.00;45.80
42135;DHT22;28312;43.460;11.810;2023-08-20T22:06:20;24.90;45.90
42135;DHT22;28312;43.460;11.810;2023-08-20T22:10:24;24.70;46.10
42135;DHT22;28312;43.460;11.810;2023-08-20T22:14:27;24.50;46.30
42135;DHT22;28312;43.460;11.810;2023-08-20T22:18:32;24.40;46.40
42135;DHT22;28312;43.460;11.810;2023-08-20T22:22:36;24.20;46.50
42135;DHT22;28312;43.460;11.810;2023-08-20T22:26:41;24.10;46.70
42135;DHT22;28312;43.460;11.810;2023-08-20T22:30:45;24.00;46.80
42135;DHT22;28312;43.460;11.810;2023-08-20T22:34:51;23.90;46.90
42135;DHT22;28312;43.460;11.810;2023-08-20T22:38:56;23.70;47.20
42135;DHT22;28312;43.460;11.810;2023-08-20T22:42:59;23.60;47.30
42135;DHT22;28312;43.460;11.810;2023-08-20T22:47:03;23.50;47.40
42135;DHT22;28312;43.460;11.810;2023-08-20T22:51:07;23.40;47.60
42135;DHT22;28312;43.460;11.810;2023-08-20T22:55:10;23.30;47.80
42135;DHT22;28312;43.460;11.810;2023-08-20T22:59:14;23.10;48.00
42135;DHT22;28312;43.460;11.810;2023-08-20T23:03:18;23.00;48.20
42135;DHT22;28312;43.460;11.810;2023-08-20T23:07:21;23.00;48.40
42135;DHT22;28312;43.460;11.810;2023-08-20T23:11:25;22.90;48.50
42135;DHT22;28312;43.460;11.810;2023-08-20T23:15:28;22.90;48.60
42135;DHT22;28312;43.460;11.810;2023-08-20T23:19:32;22.70;48.80
42135;DHT22;28312;43.460;11.810;2023-08-20T23:23:36;22.70;49.00
42135;DHT22;28312;43.460;11.810;2023-08-20T23:27:40;22.70;49.00
42135;DHT22;28312;43.460;11.810;2023-08-20T23:31:44;22.70;49.20
42135;DHT22;28312;43.460;11.810;2023-08-20T23:35:47;22.60;49.30
42135;DHT22;28312;43.460;11.810;2023-08-20T23:39:51;22.50;49.40
42135;DHT22;28312;43.460;11.810;2023-08-20T23:43:54;22.50;49.60
42135;DHT22;28312;43.460;11.810;2023-08-20T23:47:57;22.40;49.60
42135;DHT22;28312;43.460;11.810;2023-08-20T23:52:01;22.30;49.80
42135;DHT22;28312;43.460;11.810;2023-08-20T23:56:05;22.30;49.90
